Time;durP1;ratioP1;P1;durP2;ratioP2;P2;SDS_P1;SDS_P2;PMS_P1;PMS_P2;Temp;Humidity;BMP_temperature;BMP_pressure;BME280_temperature;BME280_humidity;BME280_pressure;Samples;Min_cycle;Max_cycle;Signal;HPM_P1;HPM_P2
2022/08/14 00:00:48;;;;;;;5.22;4.28;;;23.40;53.70;;;;;;5092950;28;20043;-40
2022/08/14 00:03:22;;;;;;;7.22;4.15;;;23.30;54.00;;;;;;5091797;28;20047;-38
2022/08/14 00:05:48;;;;;;;5.57;4.05;;;23.30;54.20;;;;;;5093028;28;20024;-39
2022/08/14 00:08:14;;;;;;;5.63;4.35;;;23.30;54.30;;;;;;5096722;28;20102;-39
2022/08/14 00:10:40;;;;;;;9.55;5.75;;;23.20;54.50;;;;;;5096949;28;20035;-40
2022/08/14 00:13:07;;;;;;;5.07;4.40;;;23.10;54.80;;;;;;5096614;28;20039;-40
2022/08/14 00:15:37;;;;;;;7.35;4.75;;;23.10;55.10;;;;;;5097068;28;20024;-38
2022/08/14 00:18:04;;;;;;;6.75;4.82;;;23.00;55.30;;;;;;5096402;28;20161;-38
2022/08/14 00:20:33;;;;;;;8.50;4.55;;;23.00;55.50;;;;;;5096171;28;20046;-39
2022/08/14 00:22:59;;;;;;;6.53;4.57;;;23.00;55.40;;;;;;5096462;28;20048;-38
2022/08/14 00:25:26;;;;;;;5.82;4.43;;;22.90;55.60;;;;;;5096551;28;20036;-40
2022/08/14 00:27:54;;;;;;;7.18;4.20;;;22.80;55.50;;;;;;5095012;28;20016;-39
2022/08/14 00:30:20;;;;;;;8.98;4.95;;;22.80;55.70;;;;;;5095004;28;20456;-39
2022/08/14 00:32:46;;;;;;;7.88;5.28;;;22.80;55.90;;;;;;5095389;28;20445;-38
2022/08/14 00:35:12;;;;;;;5.80;5.00;;;22.70;56.10;;;;;;5096757;28;20028;-39
2022/08/14 00:37:40;;;;;;;11.10;5.22;;;22.80;56.20;;;;;;5096258;28;20032;-38
2022/08/14 00:40:08;;;;;;;7.63;4.90;;;22.70;56.40;;;;;;5096115;28;20435;-39
2022/08/14 00:42:34;;;;;;;6.57;5.03;;;22.70;56.40;;;;;;5095067;28;20028;-41
2022/08/14 00:45:00;;;;;;;6.63;5.65;;;22.60;56.80;;;;;;5096056;28;20524;-39
2022/08/14 00:47:25;;;;;;;7.53;5.32;;;22.60;56.70;;;;;;5094723;28;20024;-39
2022/08/14 00:49:55;;;;;;;8.55;4.82;;;22.50;56.90;;;;;;5094637;28;20059;-39
2022/08/14 00:52:21;;;;;;;9.25;4.97;;;22.50;57.00;;;;;;5096621;28;20528;-38
2022/08/14 00:54:53;;;;;;;8.43;6.65;;;22.40;57.20;;;;;;5094957;28;20375;-39
2022/08/14 00:57:21;;;;;;;8.57;5.03;;;22.40;57.40;;;;;;5096087;28;20024;-39
2022/08/14 00:59:47;;;;;;;7.50;5.00;;;22.40;57.70;;;;;;5095793;28;20016;-38
2022/08/14 01:02:17;;;;;;;6.25;5.22;;;22.30;57.80;;;;;;5095909;28;20032;-39
2022/08/14 01:04:44;;;;;;;9.25;5.72;;;22.30;57.90;;;;;;5094338;28;20028;-40
2022/08/14 01:07:11;;;;;;;8.35;5.10;;;22.30;58.00;;;;;;5095907;28;20379;-39
2022/08/14 01:09:37;;;;;;;6.50;5.53;;;22.20;58.40;;;;;;5095568;28;20020;-38
2022/08/14 01:12:04;;;;;;;6.70;5.28;;;22.20;58.70;;;;;;5094217;28;20081;-40
2022/08/14 01:14:29;;;;;;;7.00;6.13;;;22.10;58.90;;;;;;5095593;28;20036;-39
2022/08/14 01:16:55;;;;;;;7.57;5.15;;;22.10;58.90;;;;;;5095330;28;20032;-39
2022/08/14 01:22:08;;;;;;;9.43;6.22;;;22.10;59.20;;;;;;5095836;28;20066;-40
2022/08/14 01:24:35;;;;;;;10.20;6.55;;;22.00;59.40;;;;;;5094005;28;20499;-39
2022/08/14 01:27:03;;;;;;;7.30;5.65;;;21.90;59.80;;;;;;5094167;28;20078;-39
2022/08/14 01:29:30;;;;;;;6.75;6.05;;;21.90;59.90;;;;;;5095615;28;20389;-40
2022/08/14 01:32:00;;;;;;;9.68;6.00;;;21.80;60.10;;;;;;5095294;28;20038;-39
2022/08/14 01:34:26;;;;;;;7.55;5.88;;;21.80;60.20;;;;;;5094358;28;20502;-38
2022/08/14 01:36:52;;;;;;;9.77;6.82;;;21.80;60.40;;;;;;5095277;28;20032;-39
2022/08/14 01:39:19;;;;;;;13.38;7.00;;;21.80;60.30;;;;;;5094805;28;20085;-38
2022/08/14 01:41:54;;;;;;;9.23;6.07;;;21.80;60.40;;;;;;5094982;28;20024;-38
2022/08/14 01:44:23;;;;;;;8.05;6.00;;;21.80;60.70;;;;;;5095203;28;20035;-38
2022/08/14 01:46:55;;;;;;;7.30;6.30;;;21.70;61.00;;;;;;5094588;28;20031;-38
2022/08/14 01:49:21;;;;;;;6.70;6.00;;;21.70;61.20;;;;;;5094626;28;20028;-38
2022/08/14 01:51:47;;;;;;;8.40;6.65;;;21.70;61.30;;;;;;5094523;28;20122;-39
2022/08/14 01:54:19;;;;;;;8.77;6.78;;;21.60;61.40;;;;;;5094344;28;20016;-38
2022/08/14 01:56:45;;;;;;;6.55;5.38;;;21.60;61.50;;;;;;5094740;28;20028;-38
2022/08/14 01:59:16;;;;;;;12.05;7.25;;;21.70;61.40;;;;;;5094569;28;20035;-38
2022/08/14 02:01:42;;;;;;;9.25;7.25;;;21.70;61.50;;;;;;5094393;28;20016;-38
2022/08/14 02:04:09;;;;;;;6.82;5.85;;;21.60;61.60;;;;;;5094624;28;20376;-38
2022/08/14 02:06:36;;;;;;;9.20;7.38;;;21.50;61.90;;;;;;5094434;28;20499;-39
2022/08/14 02:09:03;;;;;;;14.43;6.93;;;21.40;62.00;;;;;;5094194;28;20164;-39
2022/08/14 02:11:29;;;;;;;8.38;5.97;;;21.40;62.30;;;;;;5094150;28;20379;-39
2022/08/14 02:14:03;;;;;;;7.40;6.45;;;21.40;62.30;;;;;;5092822;28;20020;-38
2022/08/14 02:16:35;;;;;;;11.40;6.80;;;21.40;62.40;;;;;;5093959;28;20028;-37
2022/08/14 02:19:29;;;;;;;9.02;7.03;;;21.30;62.80;;;;;;5094281;28;20024;-39
2022/08/14 02:21:58;;;;;;;8.50;5.53;;;21.40;62.60;;;;;;5090065;28;20028;-38
2022/08/14 02:24:30;;;;;;;9.50;6.90;;;21.30;62.80;;;;;;5094530;28;20440;-38
2022/08/14 02:26:58;;;;;;;8.20;6.40;;;21.30;63.20;;;;;;5092794;28;20038;-39
2022/08/14 02:29:26;;;;;;;7.25;6.35;;;21.30;63.50;;;;;;5093801;28;20062;-43
2022/08/14 02:31:55;;;;;;;7.28;6.22;;;21.30;63.40;;;;;;5094086;28;20028;-39
2022/08/14 02:34:30;;;;;;;8.73;6.45;;;21.20;63.40;;;;;;5093661;28;20028;-39
2022/08/14 02:37:01;;;;;;;11.57;6.97;;;21.10;63.90;;;;;;5092423;28;20480;-39
2022/08/14 02:39:30;;;;;;;8.05;6.55;;;21.10;64.20;;;;;;5093812;28;20028;-40
2022/08/14 02:41:58;;;;;;;7.63;6.82;;;21.10;64.00;;;;;;5093703;28;20024;-39
2022/08/14 02:44:25;;;;;;;8.05;6.53;;;21.00;64.20;;;;;;5093557;28;20026;-38
2022/08/14 02:46:56;;;;;;;8.13;7.03;;;21.00;64.50;;;;;;5093817;28;20031;-39
2022/08/14 02:49:26;;;;;;;9.80;7.45;;;21.00;64.60;;;;;;5094083;28;20421;-38
2022/08/14 02:51:52;;;;;;;10.18;6.97;;;20.90;64.70;;;;;;5094082;28;20028;-38
2022/08/14 02:54:18;;;;;;;10.98;7.05;;;20.90;64.70;;;;;;5093685;28;20032;-38
2022/08/14 02:56:44;;;;;;;11.27;7.95;;;21.00;64.80;;;;;;5093956;28;20028;-39
2022/08/14 02:59:12;;;;;;;11.27;7.25;;;21.00;64.80;;;;;;5091828;28;20077;-38
2022/08/14 03:01:39;;;;;;;12.35;7.82;;;21.00;64.90;;;;;;5093525;28;20357;-38
2022/08/14 03:04:09;;;;;;;11.68;7.72;;;21.10;64.70;;;;;;5093667;28;20437;-37
2022/08/14 03:06:35;;;;;;;9.60;8.02;;;20.90;65.20;;;;;;5093258;28;20030;-39
2022/08/14 03:09:01;;;;;;;12.27;8.00;;;20.90;65.20;;;;;;5093280;28;20111;-39
2022/08/14 03:11:27;;;;;;;9.13;7.85;;;20.80;65.40;;;;;;5091916;28;20563;-38
2022/08/14 03:13:52;;;;;;;10.52;8.43;;;20.90;65.40;;;;;;5093296;28;20065;-38
2022/08/14 03:16:21;;;;;;;13.18;8.20;;;20.90;65.40;;;;;;5093111;28;20012;-38
2022/08/14 03:18:49;;;;;;;8.77;7.88;;;20.80;65.70;;;;;;5093326;28;20353;-37
2022/08/14 03:21:19;;;;;;;9.43;7.65;;;20.80;65.80;;;;;;5093881;28;20032;-38
2022/08/14 03:23:47;;;;;;;10.95;8.70;;;20.80;65.60;;;;;;5091866;28;20032;-40
2022/08/14 03:26:18;;;;;;;11.50;8.95;;;20.80;66.00;;;;;;5093059;28;20392;-48
2022/08/14 03:28:51;;;;;;;11.02;8.10;;;20.80;66.10;;;;;;5093120;28;20028;-39
2022/08/14 03:31:22;;;;;;;11.27;8.40;;;20.70;66.40;;;;;;5093518;28;20106;-39
2022/08/14 03:33:49;;;;;;;13.32;9.07;;;20.70;66.50;;;;;;5092890;28;20024;-39
2022/08/14 03:36:18;;;;;;;16.08;9.40;;;20.70;66.40;;;;;;5093094;28;20447;-39
2022/08/14 03:38:48;;;;;;;14.02;9.23;;;20.70;66.60;;;;;;5092893;28;20024;-38
2022/08/14 03:41:17;;;;;;;11.27;8.93;;;20.80;66.60;;;;;;5094017;28;20082;-38
2022/08/14 03:43:44;;;;;;;12.75;8.52;;;20.60;66.90;;;;;;5096986;28;20047;-38
2022/08/14 03:46:11;;;;;;;11.65;9.63;;;20.60;67.10;;;;;;5096903;28;20137;-38
2022/08/14 03:48:38;;;;;;;10.77;8.93;;;20.50;67.40;;;;;;5097092;28;20100;-39
2022/08/14 03:51:07;;;;;;;13.23;9.82;;;20.50;67.20;;;;;;5096768;28;20043;-39
2022/08/14 03:53:36;;;;;;;11.60;8.82;;;20.50;67.40;;;;;;5097785;28;20032;-39
2022/08/14 03:56:04;;;;;;;10.68;8.77;;;20.50;67.50;;;;;;5096972;28;20455;-39
2022/08/14 19:15:09;;;;;;;5.50;4.95;;;28.60;45.20;;;;;;5123783;27;20407;-47
2022/08/14 19:17:42;;;;;;;5.68;5.00;;;28.50;45.50;;;;;;5089600;28;20036;-48
2022/08/14 19:20:09;;;;;;;5.20;4.70;;;28.50;45.60;;;;;;5091067;28;20456;-47
2022/08/14 19:22:39;;;;;;;6.13;5.18;;;28.40;45.70;;;;;;5090163;28;20472;-47
2022/08/14 19:25:10;;;;;;;6.50;5.25;;;28.40;45.90;;;;;;5090427;28;20021;-48
2022/08/14 19:27:37;;;;;;;4.82;4.40;;;28.40;46.00;;;;;;5090305;28;20553;-46
2022/08/14 19:30:12;;;;;;;6.43;5.45;;;28.40;46.00;;;;;;5088719;28;20410;-47
2022/08/14 19:32:39;;;;;;;6.63;5.60;;;28.30;46.10;;;;;;5088624;28;20024;-47
2022/08/14 19:35:15;;;;;;;5.90;5.32;;;28.30;46.10;;;;;;5090296;28;20050;-47
2022/08/14 19:37:55;;;;;;;5.50;4.97;;;28.30;46.20;;;;;;5089204;28;20497;-47
2022/08/14 19:40:27;;;;;;;6.68;5.30;;;28.20;46.60;;;;;;5090095;28;20420;-49
2022/08/14 19:42:53;;;;;;;7.90;5.47;;;28.20;46.80;;;;;;5088522;28;20050;-47
2022/08/14 19:45:19;;;;;;;10.20;5.03;;;28.20;47.20;;;;;;5089809;28;20040;-49
2022/08/14 19:47:45;;;;;;;6.93;5.80;;;28.10;47.20;;;;;;5090098;28;20180;-46
2022/08/14 19:50:23;;;;;;;8.18;5.35;;;28.00;47.60;;;;;;5090366;28;20111;-52
2022/08/14 19:53:05;;;;;;;13.18;7.80;;;27.90;46.70;;;;;;5089848;28;20047;-46
2022/08/14 19:55:31;;;;;;;7.28;5.18;;;27.90;47.40;;;;;;5089420;28;20033;-48
2022/08/14 19:57:58;;;;;;;6.13;4.95;;;27.80;47.50;;;;;;5088859;28;20099;-47
2022/08/14 20:00:25;;;;;;;9.15;4.18;;;27.80;47.50;;;;;;5089627;28;20507;-46
2022/08/14 20:03:07;;;;;;;10.13;4.80;;;27.70;47.30;;;;;;5088375;28;20078;-48
2022/08/14 20:05:34;;;;;;;8.25;6.13;;;27.60;47.60;;;;;;5089987;28;20016;-47
2022/08/14 20:08:04;;;;;;;6.78;4.22;;;27.50;47.50;;;;;;5089889;28;20352;-47
2022/08/14 20:10:32;;;;;;;4.72;3.97;;;27.50;47.50;;;;;;5090584;28;20401;-45
2022/08/14 20:13:02;;;;;;;6.43;5.82;;;27.40;47.50;;;;;;5089249;28;20058;-46
2022/08/14 20:15:33;;;;;;;;;;;27.40;47.10;;;;;;5089978;28;20052;-47
2022/08/14 20:17:59;;;;;;;5.90;4.43;;;27.40;47.00;;;;;;5087867;28;19949;-47
2022/08/14 20:20:26;;;;;;;7.82;4.72;;;27.30;47.10;;;;;;5089265;28;20024;-48
2022/08/14 20:22:52;;;;;;;4.32;3.90;;;27.30;47.00;;;;;;5089464;28;20030;-54
2022/08/14 20:25:20;;;;;;;4.68;4.07;;;27.30;47.00;;;;;;5083588;28;20024;-46
2022/08/14 20:27:50;;;;;;;4.38;3.95;;;27.30;46.90;;;;;;5074482;28;20024;-45
2022/08/14 20:30:18;;;;;;;5.55;4.03;;;27.30;46.70;;;;;;5075880;28;20070;-46
2022/08/14 20:32:58;;;;;;;6.00;4.45;;;27.30;46.80;;;;;;5074109;28;20455;-47
2022/08/14 20:35:35;;;;;;;10.63;3.83;;;27.20;46.90;;;;;;5075569;28;20440;-47
2022/08/14 20:38:06;;;;;;;4.40;4.00;;;27.10;47.10;;;;;;5075805;28;20354;-48
2022/08/14 20:40:53;;;;;;;4.80;4.35;;;27.10;47.00;;;;;;5074286;28;20115;-46
2022/08/14 20:46:23;;;;;;;6.93;4.50;;;26.80;47.30;;;;;;5075680;28;20035;-47
2022/08/14 20:49:09;;;;;;;4.40;4.00;;;26.80;47.50;;;;;;5057964;28;20028;-46
2022/08/14 20:51:50;;;;;;;5.07;4.07;;;26.80;47.30;;;;;;5075250;28;20028;-47
2022/08/14 20:54:25;;;;;;;4.90;3.35;;;26.60;47.60;;;;;;5075257;28;20032;-47
2022/08/14 20:56:52;;;;;;;4.03;3.63;;;26.50;47.50;;;;;;5075072;28;20017;-46
2022/08/14 20:59:27;;;;;;;5.35;3.38;;;26.50;47.80;;;;;;5075285;28;20025;-48
2022/08/14 21:02:28;;;;;;;5.50;3.75;;;26.60;47.40;;;;;;5075201;28;20024;-47
2022/08/14 21:04:59;;;;;;;5.30;3.90;;;26.40;47.70;;;;;;5074966;28;20024;-48
2022/08/14 21:07:26;;;;;;;5.28;3.72;;;26.30;48.00;;;;;;5074844;28;20025;-47
2022/08/14 21:10:07;;;;;;;4.95;3.83;;;26.20;48.40;;;;;;5075086;28;20032;-46
2022/08/14 21:12:33;;;;;;;7.18;3.58;;;26.20;48.60;;;;;;5075508;28;20032;-47
2022/08/14 21:14:59;;;;;;;4.40;3.50;;;26.10;48.90;;;;;;5074568;28;20131;-49
2022/08/14 21:17:25;;;;;;;4.13;3.72;;;26.10;49.00;;;;;;5074467;28;20048;-48
2022/08/14 21:19:51;;;;;;;4.78;3.88;;;26.00;49.30;;;;;;5075026;28;20027;-48
2022/08/14 21:22:17;;;;;;;5.60;3.65;;;25.90;49.40;;;;;;5075014;28;20472;-46
2022/08/14 21:24:43;;;;;;;3.95;3.53;;;25.90;49.60;;;;;;5074617;28;20024;-48
2022/08/14 21:27:11;;;;;;;7.90;4.38;;;25.80;49.80;;;;;;5074446;28;20027;-47
2022/08/14 21:29:37;;;;;;;4.70;3.58;;;25.80;50.00;;;;;;5074414;28;20056;-50
2022/08/14 21:32:04;;;;;;;5.78;4.03;;;25.80;50.30;;;;;;5074611;28;20460;-47
2022/08/14 21:34:29;;;;;;;8.32;3.55;;;25.70;50.30;;;;;;5074133;28;20024;-46
2022/08/14 21:36:55;;;;;;;5.50;3.85;;;25.70;50.40;;;;;;5071745;28;20073;-45
2022/08/14 21:39:22;;;;;;;6.75;4.60;;;25.70;50.50;;;;;;5074130;28;20025;-45
2022/08/14 21:41:49;;;;;;;8.57;4.13;;;25.80;50.50;;;;;;5072679;28;20093;-51
2022/08/14 21:44:15;;;;;;;5.65;3.65;;;25.70;50.60;;;;;;5074093;28;20040;-46
2022/08/14 21:46:51;;;;;;;4.70;4.10;;;25.70;51.00;;;;;;5073981;28;20099;-46
2022/08/14 21:49:26;;;;;;;5.13;4.05;;;25.60;51.00;;;;;;5073934;28;20026;-46
2022/08/14 21:51:57;;;;;;;4.63;4.15;;;25.60;51.30;;;;;;5073692;28;20021;-50
2022/08/14 21:54:35;;;;;;;4.20;3.75;;;25.50;51.60;;;;;;5073902;28;20070;-47
2022/08/14 21:57:04;;;;;;;5.25;3.50;;;25.50;51.80;;;;;;5073698;28;20017;-48
2022/08/14 21:59:32;;;;;;;10.20;4.35;;;25.50;51.70;;;;;;5073810;28;20525;-49
2022/08/14 22:01:59;;;;;;;4.22;3.78;;;25.40;51.70;;;;;;5074057;28;20433;-46
2022/08/14 22:04:27;;;;;;;5.03;3.85;;;25.40;51.90;;;;;;5073770;28;20047;-47
2022/08/14 22:06:53;;;;;;;4.00;3.60;;;25.40;51.60;;;;;;5073734;28;20028;-47
2022/08/14 22:09:21;;;;;;;3.90;3.50;;;25.30;52.10;;;;;;5074086;28;20054;-45
2022/08/14 22:11:47;;;;;;;4.40;3.63;;;25.20;52.40;;;;;;5074011;28;20040;-46
2022/08/14 22:14:14;;;;;;;4.53;3.97;;;25.20;52.60;;;;;;5073492;28;20059;-47
2022/08/14 22:16:45;;;;;;;4.30;3.53;;;25.20;52.80;;;;;;5073585;28;20024;-48
2022/08/14 22:19:17;;;;;;;4.97;3.88;;;25.10;53.00;;;;;;5073748;28;20094;-47
2022/08/14 22:21:44;;;;;;;4.65;4.10;;;25.10;53.20;;;;;;5072102;28;20032;-46
2022/08/14 22:24:12;;;;;;;6.43;4.05;;;25.10;53.50;;;;;;5073686;28;20032;-46
2022/08/14 22:26:39;;;;;;;6.20;4.30;;;25.00;53.80;;;;;;5074065;28;20035;-48
2022/08/14 22:29:05;;;;;;;6.68;3.85;;;24.90;54.10;;;;;;5073925;28;20056;-47
2022/08/14 22:31:40;;;;;;;5.40;4.20;;;24.80;54.50;;;;;;5072215;28;20020;-47
2022/08/14 22:34:06;;;;;;;5.50;4.40;;;24.70;55.00;;;;;;5074042;28;20476;-47
2022/08/14 22:36:47;;;;;;;8.05;4.30;;;24.70;55.30;;;;;;5073491;28;20024;-47
2022/08/14 22:39:25;;;;;;;6.22;5.18;;;24.60;55.50;;;;;;5073533;28;20024;-50
2022/08/14 22:41:52;;;;;;;7.25;4.45;;;24.60;55.60;;;;;;5073691;28;20017;-47
2022/08/14 22:44:27;;;;;;;7.15;4.57;;;24.60;55.80;;;;;;5073494;28;20017;-47
2022/08/14 22:46:54;;;;;;;6.25;4.40;;;24.80;55.50;;;;;;5073886;28;20032;-48
2022/08/14 22:49:22;;;;;;;7.00;5.22;;;24.70;55.60;;;;;;5073432;28;20033;-46
2022/08/14 22:51:48;;;;;;;7.32;4.70;;;24.70;55.50;;;;;;5073536;28;20059;-47
2022/08/14 22:54:15;;;;;;;5.80;4.82;;;24.60;55.70;;;;;;5073393;28;20021;-46
2022/08/14 22:56:41;;;;;;;5.95;5.28;;;24.50;56.10;;;;;;5073400;28;20027;-47
2022/08/14 22:59:08;;;;;;;5.93;4.97;;;24.50;56.10;;;;;;5073615;28;20028;-51
2022/08/14 23:01:42;;;;;;;5.75;5.20;;;24.40;56.30;;;;;;5073423;28;20028;-47
2022/08/14 23:04:09;;;;;;;6.82;5.53;;;24.40;56.70;;;;;;5073565;28;20032;-47
2022/08/14 23:06:35;;;;;;;10.50;4.85;;;24.40;56.90;;;;;;5072068;28;20456;-49
2022/08/14 23:09:00;;;;;;;4.75;4.25;;;24.40;57.00;;;;;;5072037;28;20021;-46
2022/08/14 23:11:27;;;;;;;7.55;4.45;;;24.30;57.40;;;;;;5073049;28;20025;-46
2022/08/14 23:13:53;;;;;;;6.82;4.53;;;24.30;57.40;;;;;;5071881;28;20055;-45
2022/08/14 23:16:21;;;;;;;11.63;4.93;;;24.30;57.50;;;;;;5073202;28;20021;-46
2022/08/14 23:18:48;;;;;;;6.88;5.10;;;24.20;58.10;;;;;;5073356;28;20480;-47
2022/08/14 23:21:14;;;;;;;9.82;5.95;;;24.20;58.30;;;;;;5072262;28;20024;-46
2022/08/14 23:23:41;;;;;;;6.35;4.70;;;24.10;58.40;;;;;;5073841;28;20112;-48
2022/08/14 23:26:07;;;;;;;6.55;4.88;;;24.10;58.80;;;;;;5072604;28;20557;-45
2022/08/14 23:28:38;;;;;;;7.88;5.00;;;24.00;59.10;;;;;;5073533;28;20028;-46
2022/08/14 23:31:06;;;;;;;7.00;5.35;;;24.00;59.20;;;;;;5073447;28;20040;-47
2022/08/14 23:33:33;;;;;;;8.52;5.30;;;23.90;59.40;;;;;;5073509;28;20367;-45
2022/08/14 23:36:02;;;;;;;11.07;5.25;;;23.90;59.50;;;;;;5072084;28;20021;-48
2022/08/14 23:38:28;;;;;;;6.65;5.57;;;23.90;59.80;;;;;;5073299;28;20096;-47
2022/08/14 23:40:55;;;;;;;5.32;4.72;;;23.90;60.10;;;;;;5073238;28;20012;-48
2022/08/14 23:43:21;;;;;;;6.68;4.95;;;23.80;60.10;;;;;;5072059;28;20036;-49
2022/08/14 23:45:48;;;;;;;9.35;5.40;;;23.80;60.30;;;;;;5073298;28;20025;-47
2022/08/14 23:48:18;;;;;;;7.65;6.18;;;23.80;60.60;;;;;;5073310;28;20020;-46
2022/08/14 23:50:45;;;;;;;6.68;5.85;;;23.70;61.00;;;;;;5073545;28;20078;-46
2022/08/14 23:53:25;;;;;;;6.13;5.05;;;23.70;60.90;;;;;;5073170;28;20108;-46
2022/08/14 23:55:52;;;;;;;6.85;5.90;;;23.80;60.80;;;;;;5071756;28;20381;-46
2022/08/14 23:58:19;;;;;;;10.75;5.72;;;23.70;61.20;;;;;;5073376;28;20494;-47
